Stella, Missouri
Current Conditions -  °F | °C
As of 6:15 PM on Sunday 23 Nov 2014 (Local Time) from KHFJ Reporting Station
Thunderstorm Thunderstorm  
Wind Chill: 54°   Ceiling: 400
Heat Index: 54°   Visibility: 10mi
Dew Point: 54°   Wind: 6mph
Humidity: 100%   Direction: 310°NW
Pressure: 29.29"   Gusts: NA
Location:  36.76°N, 94.19°W
Report Text: KHFJ 240015Z AUTO 31005KT 10SM -VCTSDZ OVC004 12/12 A2929 RMK AO2 LTG DSNT E THRU SW
Loading
Personal Weather Stations






























Interactive Weather Map New forecast layout! Learn more

10-Day Weather Forecast

Advertisements
Track Severe Weather on mobile